WEATHER DATA

YESTERDAY
Time Temp. Dewp. Hum. Bar.
00:04 15.2 13.4 89 1014.7
00:13 15.2 13.4 89 1014.8
00:26 15.2 13.4 89 1014.8
00:37 15 13.2 89 1015.1
00:56 14.6 12.6 88 1015.5
01:06 14.6 12.6 88 1015.6
01:16 14.6 12.6 88 1015.7
01:27 14.5 12.5 88 1015.5
01:43 14.4 12.4 88 1015.3
01:57 14.4 12.4 88 1015.5
02:06 14.4 12.4 88 1015.5
02:18 14.3 12.3 88 1015.5
02:28 14.2 12.1 87 1015.6
02:47 14 11.9 87 1015.7
02:58 13.8 11.7 87 1015.8
03:08 13.7 11.6 87 1015.7
03:16 13.7 11.6 87 1015.8
03:28 13.6 11.7 88 1015.7
03:48 13.3 11.2 87 1015.7
03:58 13.1 11.2 88 1015.8
04:08 13 11.1 88 1015.6
04:18 12.8 10.9 88 1015.5
04:28 12.6 10.7 88 1015.6
04:38 12.4 10.3 87 1015.7
04:48 12.2 10.3 88 1015.8
04:57 12 10.1 88 1015.7
05:08 11.8 9.7 87 1015.7
05:18 11.6 9.7 88 1016
05:28 11.5 9.6 88 1016.2
05:37 11.5 9.8 89 1016.4
05:48 11.5 9.8 89 1016.4
05:58 11.6 9.9 89 1016.4
06:08 11.6 9.9 89 1016.4
06:19 11.6 9.7 88 1016.7
06:29 11.6 9.7 88 1016.9
06:38 11.7 9.9 89 1016.8
06:48 11.9 10 88 1016.9
06:59 11.9 10 88 1016.9
07:09 12.1 10.2 88 1017
07:18 12.3 10.4 88 1017
07:29 12.5 10.6 88 1017.1
07:39 12.7 10.8 88 1017.2
07:47 13.2 11.3 88 1017.3
07:58 14.1 12 87 1017.6
08:09 14.9 12.6 86 1017.6
08:19 15.8 13.1 84 1017.7
08:29 16.3 13.4 83 1017.8
08:39 17 13.7 81 1017.9
08:49 17.5 13.8 79 1018
08:59 17.7 13.8 78 1018
09:09 18.2 13.9 76 1018
09:19 18.8 14.5 76 1018.1
09:29 19.1 14.2 73 1018.2
09:39 19.6 14.4 72 1018.2
09:50 20.7 14.8 69 1018.3
09:59 21.4 14.8 66 1018.3
10:09 22.6 15.9 66 1018.3
10:19 22.8 15.1 62 1018.5
10:30 24.1 15.3 58 1018.5
10:40 26 16.3 55 1018.4
10:49 26.9 16.8 54 1018.5
11:00 27.5 16.8 52 1018.7
11:10 30.1 19.2 52 1018.7
11:20 32.4 18.6 44 1018.8
11:30 30.9 17.9 46 1018.9
11:40 29.8 17.3 47 1018.9
11:50 28.7 16.6 48 1018.9
12:00 31.5 19.2 48 1018.9
12:20 31.7 16.8 41 1019
12:30 31.5 17 42 1018.9
12:40 30.3 17.4 46 1018.9
12:50 31.3 16.1 40 1018.9
13:00 30.6 16.6 43 1018.9
13:10 29.1 16 45 1018.9
13:21 30.4 15.7 41 1018.9
13:30 31.3 16.9 42 1018.8
13:40 29.8 14.4 39 1018.8
13:51 28.1 15.4 46 1018.9
14:01 26.6 14 46 1018.9
14:10 25.4 13.6 48 1018.9
14:20 25 12.9 47 1018.9
14:31 24.1 12.1 47 1018.7
14:41 23.7 13 51 1018.9
14:50 22.9 12.5 52 1018.9
15:01 22 12.3 54 1019
15:11 21.5 12.4 56 1018.9
15:21 21.8 13.2 58 1018.9
15:31 22 11.7 52 1018.8
15:41 21.8 11.8 53 1018.8
15:51 21.7 12.3 55 1018.8
16:21 21.5 12.1 55 1018.9
16:31 21.2 12.4 57 1018.8
16:41 21.6 13 58 1018.8
16:51 21.5 12.9 58 1018.8
17:11 22.2 12.7 55 1018.8
17:31 21.6 12.2 55 1018.9
17:41 21.5 12.1 55 1018.9
17:51 21.4 12 55 1018.8
18:02 21.4 12 55 1018.8
18:11 21 11.3 54 1018.8
18:21 20.7 11.6 56 1018.8
18:32 20.7 11.6 56 1018.8
18:42 20.5 11.2 55 1018.8
18:52 20.2 10.6 54 1018.8
19:02 19.9 10.6 55 1018.8
19:12 19.2 10.5 57 1018.9
19:22 18.5 10.3 59 1019
19:32 18.2 10.8 62 1019.1
19:42 18.2 10.6 61 1019.1
19:52 17.8 10.2 61 1019.1
20:02 17.5 10.1 62 1019.2
20:12 17.1 9.8 62 1019.3
20:22 16.7 9.4 62 1019.3
20:32 16.2 9.2 63 1019.4
20:42 15.7 9.1 65 1019.5
20:53 15.2 9.1 67 1019.5
21:02 14.6 8.8 68 1019.8
21:12 14 8.4 69 1019.8
21:23 13.5 8.1 70 1019.8
21:33 13 7.7 70 1019.9
21:42 12.6 7.5 71 1019.9
21:52 12.2 7.3 72 1019.9
22:03 11.9 7.2 73 1020
22:13 11.6 7.1 74 1020.1
22:22 11.4 6.9 74 1020.1
22:33 11.2 6.7 74 1020.1
22:43 10.9 6.6 75 1020.2
22:53 10.8 6.7 76 1020.2
23:03 10.6 6.6 76 1020.3
23:13 10.5 6.6 77 1020.3
23:23 10.4 6.7 78 1020.3
23:33 10.3 6.6 78 1020.4
23:43 10.3 6.6 78 1020.4
23:53 10.2 6.7 79 1020.4

DAY STATISTIC

2020-07-03
TEMPERATURE
AVERAGE
18.1
HIGH
32.4
11:20
LOW
10.2
23:53
PRESSURE
AVERAGE
1018.0
HIGH
1020.4
23:33
LOW
1014.7
00:04
DEWPOINT
AVERAGE
11.9
HIGH
19.2
11:10
LOW
6.6
22:43
HUMIDITY
AVERAGE
70
HIGH
89
00:04
LOW
39
13:40
TEMPERATURE (°C)
LOW
10.2
HIGH
32.4
AVERAGE
18.1
PRESSURE (hpa)
LOW
1014.7
HIGH
1020.4
AVERAGE
1018.0
DEVICE